CheckWX is a tool to help pilots better visualize weather data.  It is not intended as a substitute for an official pre-flight weather briefing.

06:55:36 UTC

KVNY TAF
Van Nuys Airport
Van Nuys, California, USA
KVNY 180554Z 1806/1906 VRB03KT P6SM SCT025 FM180700 VRB03KT P6SM OVC015 FM181100 VRB03KT 5SM BR OVC008 FM181600 14005KT P6SM OVC010 FM181800 15008KT P6SM SKC FM190300 VRB03KT P6SM SKC

Jun-18@
06:00 UTC

Jun-18 @ 06:00 UTC

Jun-18@
07:00 UTC

Jun-18 @ 07:00 UTC

KVNY 180554Z 1806/1906 VRB03KT P6SM SCT025
Wind
  • Variable at 3 KTS
Cloud Levels
  • Scattered at 2,500' AGL

Jun-18@
07:00 UTC

Jun-18 @ 07:00 UTC

Jun-18@
11:00 UTC

Jun-18 @ 11:00 UTC

FM180700 VRB03KT P6SM OVC015

From

From Standard forecast or significant change

Wind
  • Variable at 3 KTS
Cloud Levels
  • Overcast at 1,500' AGL

Jun-18@
11:00 UTC

Jun-18 @ 11:00 UTC

Jun-18@
16:00 UTC

Jun-18 @ 16:00 UTC

FM181100 VRB03KT 5SM BR OVC008

From

From Standard forecast or significant change

Wind
  • Variable at 3 KTS
Conditions
Mist
Cloud Levels
  • Overcast at 800' AGL

Jun-18@
16:00 UTC

Jun-18 @ 16:00 UTC

Jun-18@
18:00 UTC

Jun-18 @ 18:00 UTC

FM181600 14005KT P6SM OVC010

From

From Standard forecast or significant change

Wind
  • 140° at 5 KTS
Cloud Levels
  • Overcast at 1,000' AGL

Jun-18@
18:00 UTC

Jun-18 @ 18:00 UTC

Jun-19@
03:00 UTC

Jun-19 @ 03:00 UTC

FM181800 15008KT P6SM SKC

From

From Standard forecast or significant change

Wind
  • 150° at 8 KTS
Cloud Levels
  • Clear skies

Jun-19@
03:00 UTC

Jun-19 @ 03:00 UTC

Jun-19@
06:00 UTC

Jun-19 @ 06:00 UTC

FM190300 VRB03KT P6SM SKC

From

From Standard forecast or significant change

Wind
  • Variable at 3 KTS
Cloud Levels
  • Clear skies